createdAt,value
2022-09-10T00:01:32.874Z,100676.38
2022-09-10T00:04:02.156Z,100663.13
2022-09-10T00:06:34.378Z,100670.06
2022-09-10T00:09:03.951Z,100666.63
2022-09-10T00:11:32.926Z,100677.47
2022-09-10T00:14:02.337Z,100668.72
2022-09-10T00:16:31.369Z,100673.44
2022-09-10T00:19:01.154Z,100678.91
2022-09-10T00:21:30.026Z,100680.88
2022-09-10T00:23:58.841Z,100663.34
2022-09-10T00:26:30.554Z,100671.25
2022-09-10T00:29:00.112Z,100672.22
2022-09-10T00:31:30.130Z,100678.97
2022-09-10T00:33:59.818Z,100678.81
2022-09-10T00:36:29.818Z,100685.63
2022-09-10T00:39:01.096Z,100689.47
2022-09-10T00:41:31.660Z,100686.72
2022-09-10T00:44:02.308Z,100688.31
2022-09-10T00:46:37.887Z,100693.56
2022-09-10T00:49:15.070Z,100697.28
2022-09-10T00:51:43.407Z,100700.59
2022-09-10T00:54:12.388Z,100700.69
2022-09-10T00:56:43.100Z,100690.78
2022-09-10T00:59:15.184Z,100688.47
2022-09-10T01:01:44.172Z,100691.88
2022-09-10T01:04:12.788Z,100688.88
2022-09-10T01:06:42.848Z,100685.94
2022-09-10T01:09:11.676Z,100680.56
2022-09-10T01:11:57.676Z,100676.31
2022-09-10T01:14:39.820Z,100680.38
2022-09-10T01:17:18.319Z,100684.13
2022-09-10T01:20:16.114Z,100681.13
2022-09-10T01:23:04.011Z,100676.31
2022-09-10T01:25:44.934Z,100672.50
2022-09-10T01:28:21.822Z,100664.00
2022-09-10T01:30:56.773Z,100661.34
2022-09-10T01:33:34.116Z,100651.66
2022-09-10T01:36:09.654Z,100661.66
2022-09-10T01:38:39.866Z,100655.06
2022-09-10T01:41:09.228Z,100661.47
2022-09-10T01:43:42.832Z,100665.16
2022-09-10T01:46:26.962Z,100663.78
2022-09-10T01:49:15.925Z,100663.78
2022-09-10T01:51:59.436Z,100669.53
2022-09-10T01:54:40.686Z,100671.41
2022-09-10T01:57:22.183Z,100667.44
2022-09-10T01:59:59.983Z,100673.69
2022-09-10T02:02:33.364Z,100661.78
2022-09-10T02:05:03.896Z,100662.34
2022-09-10T02:07:36.587Z,100681.72
2022-09-10T02:10:08.810Z,100678.97
2022-09-10T02:12:43.278Z,100683.72
2022-09-10T02:15:31.137Z,100684.22
2022-09-10T02:18:11.240Z,100693.09
2022-09-10T02:20:40.568Z,100703.84
2022-09-10T02:23:10.782Z,100697.69
2022-09-10T02:25:39.299Z,100704.88
2022-09-10T02:28:07.554Z,100704.13
2022-09-10T02:30:37.158Z,100700.63
2022-09-10T02:33:05.299Z,100698.78
2022-09-10T02:35:33.468Z,100698.03
2022-09-10T02:38:01.594Z,100700.78
2022-09-10T02:40:31.788Z,100699.53
2022-09-10T02:43:00.488Z,100707.53
2022-09-10T02:45:31.214Z,100700.41
2022-09-10T02:48:01.305Z,100696.72
2022-09-10T02:50:31.174Z,100696.63
2022-09-10T02:53:00.999Z,100694.69
2022-09-10T02:55:29.463Z,100699.28
2022-09-10T02:57:58.358Z,100703.53
2022-09-10T03:00:27.506Z,100695.69
2022-09-10T03:03:02.346Z,100698.00
2022-09-10T03:05:33.335Z,100697.13
2022-09-10T03:08:01.518Z,100692.44
2022-09-10T03:10:32.130Z,100696.31
2022-09-10T03:13:00.829Z,100699.91
2022-09-10T03:15:29.360Z,100688.28
2022-09-10T03:17:58.276Z,100681.38
2022-09-10T03:20:27.525Z,100678.84
2022-09-10T03:22:57.259Z,100677.03
2022-09-10T03:25:25.412Z,100673.09
2022-09-10T03:27:59.771Z,100679.47
2022-09-10T03:30:29.184Z,100682.03
2022-09-10T03:32:57.561Z,100682.25
2022-09-10T03:35:26.225Z,100675.56
2022-09-10T03:37:54.616Z,100672.06
2022-09-10T03:40:25.262Z,100670.31
2022-09-10T03:42:53.896Z,100668.00
2022-09-10T03:45:22.473Z,100675.44
2022-09-10T03:47:51.996Z,100672.50
2022-09-10T03:50:21.103Z,100675.75
2022-09-10T03:52:50.099Z,100677.03
2022-09-10T03:55:18.923Z,100671.63
2022-09-10T03:57:48.817Z,100674.81
2022-09-10T04:00:17.892Z,100672.25
2022-09-10T04:02:50.924Z,100679.91
2022-09-10T04:05:19.206Z,100684.91
2022-09-10T04:07:47.489Z,100679.91
2022-09-10T04:10:15.859Z,100681.56
2022-09-10T04:12:44.504Z,100688.78
2022-09-10T04:15:14.039Z,100685.63
2022-09-10T04:17:42.235Z,100687.31
2022-09-10T04:20:11.994Z,100689.44
2022-09-10T04:22:40.774Z,100685.91
2022-09-10T04:25:09.742Z,100682.25
2022-09-10T04:27:40.811Z,100683.78
2022-09-10T04:30:10.948Z,100689.72
2022-09-10T04:32:40.534Z,100688.03
2022-09-10T04:35:10.855Z,100686.28
2022-09-10T04:37:38.990Z,100693.03
2022-09-10T04:40:09.379Z,100688.47
2022-09-10T04:42:39.111Z,100689.72
2022-09-10T04:45:08.628Z,100694.84
2022-09-10T04:47:37.971Z,100704.88
2022-09-10T04:50:11.286Z,100700.25
2022-09-10T04:52:39.478Z,100700.03
2022-09-10T04:55:09.736Z,100689.25
2022-09-10T04:57:38.142Z,100693.22
2022-09-10T05:00:07.798Z,100696.47
2022-09-10T05:02:38.966Z,100690.53
2022-09-10T05:05:09.527Z,100700.13
2022-09-10T05:07:38.638Z,100706.69
2022-09-10T05:10:10.379Z,100694.28
2022-09-10T05:12:39.637Z,100691.41
2022-09-10T05:15:10.216Z,100687.34
2022-09-10T05:17:38.395Z,100686.31
2022-09-10T05:20:07.768Z,100686.72
2022-09-10T05:22:42.881Z,100678.97
2022-09-10T05:25:11.102Z,100691.19
2022-09-10T05:27:39.803Z,100689.28
2022-09-10T05:30:10.284Z,100691.03
2022-09-10T05:32:40.121Z,100695.13
2022-09-10T05:35:09.979Z,100706.81
2022-09-10T05:37:42.612Z,100707.38
2022-09-10T05:40:14.866Z,100712.66
2022-09-10T05:42:43.517Z,100712.97
2022-09-10T05:45:12.005Z,100715.31
2022-09-10T05:47:40.215Z,100701.47
2022-09-10T05:50:08.852Z,100706.66
2022-09-10T05:52:39.420Z,100697.38
2022-09-10T05:55:11.307Z,100703.13
2022-09-10T05:57:40.548Z,100700.91
2022-09-10T06:00:12.559Z,100702.16
2022-09-10T06:02:51.163Z,100701.03
2022-09-10T06:05:29.035Z,100699.06
2022-09-10T06:07:57.833Z,100690.44
2022-09-10T06:10:27.425Z,100685.91
2022-09-10T06:12:55.550Z,100683.75
2022-09-10T06:15:23.746Z,100694.56
2022-09-10T06:17:55.823Z,100684.66
2022-09-10T06:20:25.466Z,100692.78
2022-09-10T06:22:54.784Z,100690.16
2022-09-10T06:25:22.952Z,100684.56
2022-09-10T06:27:53.240Z,100686.38
2022-09-10T06:30:21.681Z,100666.34
2022-09-10T06:32:50.296Z,100668.97
2022-09-10T06:35:18.647Z,100662.41
2022-09-10T06:37:47.410Z,100644.91
2022-09-10T06:40:18.525Z,100651.47
2022-09-10T06:42:46.918Z,100646.28
2022-09-10T06:45:16.470Z,100643.00
2022-09-10T06:48:47.544Z,100649.59
2022-09-10T06:51:17.924Z,100653.97
2022-09-10T06:53:47.686Z,100653.81
2022-09-10T06:56:20.989Z,100651.72
2022-09-10T06:58:50.440Z,100646.91
2022-09-10T07:01:22.890Z,100657.53
2022-09-10T07:03:56.819Z,100651.03
2022-09-10T07:06:27.627Z,100650.09
2022-09-10T07:09:05.553Z,100651.03
2022-09-10T07:11:41.548Z,100651.13
2022-09-10T07:14:12.323Z,100650.81
2022-09-10T07:16:44.848Z,100655.56
2022-09-10T07:19:15.122Z,100652.94
2022-09-10T07:21:50.149Z,100647.75
2022-09-10T07:24:20.112Z,100656.63
2022-09-10T07:27:01.440Z,100649.75
2022-09-10T07:29:31.409Z,100655.81
2022-09-10T07:32:03.448Z,100659.63
2022-09-10T07:34:32.567Z,100654.25
2022-09-10T07:37:02.142Z,100652.97
2022-09-10T07:39:31.443Z,100657.50
2022-09-10T07:42:00.628Z,100654.06
2022-09-10T07:44:31.566Z,100653.66
2022-09-10T07:47:04.912Z,100646.84
2022-09-10T07:49:34.188Z,100651.06
2022-09-10T07:52:04.771Z,100652.28
2022-09-10T07:54:40.035Z,100653.38
2022-09-10T07:57:08.156Z,100648.19
2022-09-10T07:59:37.237Z,100664.22
2022-09-10T08:02:07.430Z,100653.88
2022-09-10T08:04:37.738Z,100653.69
2022-09-10T08:07:10.134Z,100659.44
2022-09-10T08:09:40.470Z,100661.63
2022-09-10T08:12:12.562Z,100660.44
2022-09-10T08:14:42.356Z,100662.69
2022-09-10T08:17:13.227Z,100661.69
2022-09-10T08:19:44.819Z,100663.66
2022-09-10T08:22:14.207Z,100665.28
2022-09-10T08:24:48.670Z,100661.53
2022-09-10T08:27:18.468Z,100668.38
2022-09-10T08:29:48.356Z,100675.38
2022-09-10T08:32:17.904Z,100665.84
2022-09-10T08:34:46.410Z,100658.53
2022-09-10T08:37:14.746Z,100659.22
2022-09-10T08:39:42.957Z,100661.44
2022-09-10T08:42:19.142Z,100669.31
2022-09-10T08:44:51.938Z,100675.44
2022-09-10T08:47:33.358Z,100668.28
2022-09-10T08:50:13.228Z,100664.34
2022-09-10T08:52:48.871Z,100675.75
2022-09-10T08:55:32.175Z,100686.00
2022-09-10T08:58:04.659Z,100685.47
2022-09-10T09:00:37.961Z,100683.56
2022-09-10T09:03:22.502Z,100683.69
2022-09-10T09:05:55.865Z,100679.56
2022-09-10T09:08:34.384Z,100689.03
2022-09-10T09:11:14.078Z,100681.56
2022-09-10T09:14:07.475Z,100683.72
2022-09-10T09:16:53.203Z,100675.44
2022-09-10T09:19:33.315Z,100679.84
2022-09-10T09:22:09.255Z,100687.41
2022-09-10T09:24:53.723Z,100690.22
2022-09-10T09:27:22.479Z,100688.66
2022-09-10T09:29:59.759Z,100681.88
2022-09-10T09:32:31.607Z,100678.03
2022-09-10T09:35:10.139Z,100679.13
2022-09-10T09:37:43.263Z,100686.41
2022-09-10T09:40:25.880Z,100681.38
2022-09-10T09:42:59.279Z,100684.06
2022-09-10T09:45:37.303Z,100680.44
2022-09-10T09:48:07.460Z,100682.56
2022-09-10T09:50:41.820Z,100685.19
2022-09-10T09:53:15.223Z,100677.81
2022-09-10T09:55:45.798Z,100678.78
2022-09-10T09:58:37.351Z,100686.56
2022-09-10T10:01:14.577Z,100684.22
2022-09-10T10:03:51.679Z,100690.13
2022-09-10T10:06:24.608Z,100685.66
2022-09-10T10:09:04.778Z,100684.56
2022-09-10T10:11:45.438Z,100690.13
2022-09-10T10:14:38.214Z,100679.59
2022-09-10T10:17:27.271Z,100679.69
2022-09-10T10:20:01.384Z,100684.53
2022-09-10T10:22:32.008Z,100675.63
2022-09-10T10:25:01.682Z,100674.25
2022-09-10T10:27:35.832Z,100657.38
2022-09-10T10:30:22.006Z,100663.03
2022-09-10T10:32:54.539Z,100667.69
2022-09-10T10:35:34.062Z,100666.31
2022-09-10T10:38:19.856Z,100674.38
2022-09-10T10:40:57.146Z,100662.00
2022-09-10T10:43:42.677Z,100665.75
2022-09-10T10:46:18.759Z,100658.66
2022-09-10T10:49:03.508Z,100654.84
2022-09-10T10:51:42.297Z,100667.63
2022-09-10T10:54:29.443Z,100653.66
2022-09-10T10:57:06.829Z,100654.94
2022-09-10T10:59:53.040Z,100650.63
2022-09-10T11:02:32.021Z,100658.06
2022-09-10T11:05:06.498Z,100652.59
2022-09-10T11:07:40.102Z,100660.75
2022-09-10T11:10:20.607Z,100654.72
2022-09-10T11:12:55.186Z,100652.81
2022-09-10T11:15:30.358Z,100649.13
2022-09-10T11:18:07.814Z,100654.66
2022-09-10T11:20:42.661Z,100659.31
2022-09-10T11:23:21.886Z,100653.09
2022-09-10T11:25:57.151Z,100655.06
2022-09-10T11:28:31.344Z,100659.50
2022-09-10T11:31:09.864Z,100655.94
2022-09-10T11:33:46.744Z,100658.91
2022-09-10T11:36:23.203Z,100651.13
2022-09-10T11:39:04.059Z,100648.06
2022-09-10T11:41:35.463Z,100648.13
2022-09-10T11:44:12.250Z,100647.16
2022-09-10T11:46:45.744Z,100644.66
2022-09-10T11:49:21.748Z,100650.19
2022-09-10T11:51:50.530Z,100643.28
2022-09-10T11:54:26.803Z,100640.78
2022-09-10T11:57:02.969Z,100636.25
2022-09-10T11:59:47.697Z,100638.38
2022-09-10T12:02:40.394Z,100612.44
2022-09-10T12:05:23.615Z,100627.13
2022-09-10T12:08:00.938Z,100624.09
2022-09-10T12:10:35.284Z,100632.94
2022-09-10T12:13:09.766Z,100628.53
2022-09-10T12:15:38.607Z,100622.09
2022-09-10T12:18:14.263Z,100611.97
2022-09-10T12:20:45.619Z,100615.31
2022-09-10T12:23:18.285Z,100621.75
2022-09-10T12:25:46.680Z,100627.88
2022-09-10T12:28:58.286Z,100619.41
2022-09-10T12:31:27.610Z,100616.53
2022-09-10T12:34:18.008Z,100609.59
2022-09-10T12:37:34.598Z,100616.19
2022-09-10T12:40:40.183Z,100623.09
2022-09-10T12:43:47.300Z,100613.63
2022-09-10T12:46:22.760Z,100607.88
2022-09-10T12:49:05.234Z,100621.16
2022-09-10T12:51:46.219Z,100614.69
2022-09-10T12:54:36.106Z,100609.81
2022-09-10T12:57:21.417Z,100603.94
2022-09-10T13:00:13.009Z,100605.34
2022-09-10T13:02:50.234Z,100602.13
2022-09-10T13:05:30.157Z,100601.31
2022-09-10T13:08:06.039Z,100598.31
2022-09-10T13:10:35.012Z,100592.00
2022-09-10T13:13:06.936Z,100604.41
2022-09-10T13:15:39.272Z,100589.81
2022-09-10T13:18:28.395Z,100588.34
2022-09-10T13:20:57.196Z,100590.72
2022-09-10T13:23:47.593Z,100576.88
2022-09-10T13:26:48.592Z,100569.78
2022-09-10T13:29:36.070Z,100569.09
2022-09-10T13:32:10.678Z,100570.13
2022-09-10T13:35:11.440Z,100572.78
2022-09-10T13:37:59.335Z,100563.72
2022-09-10T13:40:52.117Z,100578.91
2022-09-10T13:43:39.064Z,100566.41
2022-09-10T13:46:11.608Z,100580.06
2022-09-10T13:48:47.135Z,100573.06
2022-09-10T13:51:25.954Z,100576.22
2022-09-10T13:53:54.883Z,100574.50
2022-09-10T13:56:27.627Z,100573.13
2022-09-10T13:59:01.546Z,100572.16
2022-09-10T14:01:51.357Z,100567.03
2022-09-10T14:04:24.466Z,100570.78
2022-09-10T14:06:55.710Z,100574.34
2022-09-10T14:09:24.038Z,100567.50
2022-09-10T14:11:52.464Z,100561.97
2022-09-10T14:14:23.936Z,100557.44
2022-09-10T14:16:53.635Z,100557.69
2022-09-10T14:19:24.499Z,100556.25
2022-09-10T14:21:55.813Z,100555.22
2022-09-10T14:24:30.662Z,100554.50
2022-09-10T14:27:18.906Z,100553.31
2022-09-10T14:29:47.626Z,100554.00
2022-09-10T14:32:30.703Z,100555.75
2022-09-10T14:34:59.372Z,100552.81
2022-09-10T14:37:36.261Z,100555.72
2022-09-10T14:40:18.134Z,100554.00
2022-09-10T14:42:47.442Z,100561.97
2022-09-10T14:45:41.657Z,100555.19
2022-09-10T14:48:30.069Z,100555.75
2022-09-10T14:51:10.838Z,100561.75
2022-09-10T14:53:41.825Z,100547.94
2022-09-10T14:56:22.392Z,100549.06
2022-09-10T14:58:57.870Z,100548.84
2022-09-10T15:01:26.401Z,100546.53
2022-09-10T15:03:55.372Z,100549.66
2022-09-10T15:06:26.375Z,100569.28
2022-09-10T15:08:57.064Z,100571.66
2022-09-10T15:11:27.148Z,100580.28
2022-09-10T15:13:58.783Z,100573.22
2022-09-10T15:16:27.563Z,100578.59
2022-09-10T15:18:55.881Z,100577.88
2022-09-10T15:21:24.094Z,100577.00
2022-09-10T15:23:52.253Z,100581.00
2022-09-10T15:26:21.739Z,100583.47
2022-09-10T15:28:50.061Z,100587.66
2022-09-10T15:31:18.498Z,100583.88
2022-09-10T15:33:46.665Z,100580.03
2022-09-10T15:36:14.770Z,100578.34
2022-09-10T15:38:43.138Z,100580.50
2022-09-10T15:41:13.191Z,100571.00
2022-09-10T15:43:44.183Z,100569.84
2022-09-10T15:46:13.879Z,100575.34
2022-09-10T15:48:42.892Z,100570.72
2022-09-10T15:51:14.832Z,100572.34
2022-09-10T15:53:43.271Z,100575.06
2022-09-10T15:56:12.793Z,100574.25
2022-09-10T15:58:43.260Z,100578.19
2022-09-10T16:01:13.259Z,100590.22
2022-09-10T16:03:46.586Z,100591.94
2022-09-10T16:06:15.429Z,100590.63
2022-09-10T16:08:49.138Z,100584.47
2022-09-10T16:11:18.137Z,100581.28
2022-09-10T16:13:47.830Z,100588.19
2022-09-10T16:16:19.688Z,100595.09
2022-09-10T16:18:51.286Z,100600.84
2022-09-10T16:21:22.357Z,100593.38
2022-09-10T16:23:52.445Z,100586.47
2022-09-10T16:26:23.040Z,100583.41
2022-09-10T16:28:53.726Z,100590.97
2022-09-10T16:31:23.511Z,100585.19
2022-09-10T16:33:55.012Z,100587.41
2022-09-10T16:36:25.076Z,100586.34
2022-09-10T16:38:54.702Z,100588.19
2022-09-10T16:41:24.820Z,100582.22
2022-09-10T16:43:55.074Z,100590.16
2022-09-10T16:46:23.406Z,100596.41
2022-09-10T16:48:53.648Z,100594.59
2022-09-10T16:51:24.422Z,100604.06
2022-09-10T16:53:57.761Z,100599.06
2022-09-10T16:56:26.747Z,100597.81
2022-09-10T16:58:57.582Z,100595.69
2022-09-10T17:01:25.817Z,100589.75
2022-09-10T17:03:54.245Z,100594.19
2022-09-10T17:06:24.545Z,100588.25
2022-09-10T17:08:53.983Z,100590.06
2022-09-10T17:11:22.811Z,100578.47
2022-09-10T17:13:51.447Z,100578.66
2022-09-10T17:16:26.588Z,100575.69
2022-09-10T17:18:59.582Z,100569.84
2022-09-10T17:21:29.075Z,100577.78
2022-09-10T17:23:57.846Z,100577.88
2022-09-10T17:26:27.026Z,100567.81
2022-09-10T17:28:57.107Z,100571.94
2022-09-10T17:31:27.756Z,100562.50
2022-09-10T17:33:56.726Z,100566.38
2022-09-10T17:36:26.221Z,100572.53
2022-09-10T17:38:55.579Z,100567.97
2022-09-10T17:41:24.963Z,100567.59
2022-09-10T17:43:53.115Z,100579.31
2022-09-10T17:46:23.382Z,100578.47
2022-09-10T17:48:54.482Z,100573.16
2022-09-10T17:51:24.363Z,100581.63
2022-09-10T17:53:53.901Z,100580.53
2022-09-10T17:56:23.362Z,100584.63
2022-09-10T17:58:57.154Z,100594.66
2022-09-10T18:01:27.489Z,100592.41
2022-09-10T18:03:57.328Z,100600.31
2022-09-10T18:06:26.911Z,100608.78
2022-09-10T18:08:55.187Z,100602.44
2022-09-10T18:11:25.769Z,100606.13
2022-09-10T18:13:57.156Z,100608.06
2022-09-10T18:16:27.458Z,100611.63
2022-09-10T18:18:59.333Z,100612.97
2022-09-10T18:21:31.074Z,100611.59
2022-09-10T18:24:01.630Z,100614.31
2022-09-10T18:26:32.397Z,100613.44
2022-09-10T18:29:01.982Z,100610.34
2022-09-10T18:31:32.587Z,100618.53
2022-09-10T18:34:02.540Z,100624.44
2022-09-10T18:36:31.505Z,100629.06
2022-09-10T18:39:03.185Z,100628.66
2022-09-10T18:41:32.568Z,100627.13
2022-09-10T18:44:04.049Z,100635.28
2022-09-10T18:46:33.726Z,100636.47
2022-09-10T18:49:04.608Z,100629.56
2022-09-10T18:51:33.085Z,100640.41
2022-09-10T18:54:04.056Z,100627.16
2022-09-10T18:56:32.938Z,100634.78
2022-09-10T18:59:04.886Z,100626.31
2022-09-10T19:01:34.105Z,100626.31
2022-09-10T19:04:07.038Z,100627.72
2022-09-10T19:06:38.177Z,100616.28
2022-09-10T19:09:09.251Z,100624.59
2022-09-10T19:11:40.554Z,100624.31
2022-09-10T19:14:14.757Z,100626.59
2022-09-10T19:16:43.086Z,100629.06
2022-09-10T19:19:16.571Z,100632.41
2022-09-10T19:21:45.436Z,100620.84
2022-09-10T19:24:14.786Z,100621.97
2022-09-10T19:26:43.258Z,100621.38
2022-09-10T19:29:12.918Z,100621.09
2022-09-10T19:31:42.279Z,100613.06
2022-09-10T19:34:13.636Z,100619.94
2022-09-10T19:36:43.491Z,100601.94
2022-09-10T19:39:13.959Z,100610.84
2022-09-10T19:41:43.725Z,100617.28
2022-09-10T19:44:13.987Z,100618.56
2022-09-10T19:46:43.992Z,100621.13
2022-09-10T19:49:13.485Z,100616.22
2022-09-10T19:51:42.584Z,100620.88
2022-09-10T19:54:12.012Z,100614.88
2022-09-10T19:56:42.312Z,100625.84
2022-09-10T19:59:10.965Z,100632.94
2022-09-10T20:01:41.194Z,100626.41
2022-09-10T20:04:12.071Z,100634.03
2022-09-10T20:06:42.801Z,100634.56
2022-09-10T20:09:11.023Z,100637.72
2022-09-10T20:11:39.629Z,100631.84
2022-09-10T20:14:09.884Z,100640.41
2022-09-10T20:16:39.032Z,100640.72
2022-09-10T20:19:08.159Z,100642.28
2022-09-10T20:21:37.375Z,100646.31
2022-09-10T20:24:08.733Z,100650.31
2022-09-10T20:26:40.039Z,100654.97
2022-09-10T20:29:12.162Z,100647.56
2022-09-10T20:31:41.879Z,100644.53
2022-09-10T20:34:13.128Z,100651.19
2022-09-10T20:36:42.291Z,100655.41
2022-09-10T20:39:14.203Z,100653.75
2022-09-10T20:41:42.366Z,100647.41
2022-09-10T20:44:13.612Z,100654.69
2022-09-10T20:46:42.868Z,100655.31
2022-09-10T20:49:12.725Z,100653.59
2022-09-10T20:51:41.649Z,100655.03
2022-09-10T20:54:13.898Z,100653.09
2022-09-10T20:56:42.222Z,100642.38
2022-09-10T20:59:12.791Z,100646.28
2022-09-10T21:01:41.021Z,100646.91
2022-09-10T21:04:09.407Z,100645.25
2022-09-10T21:06:37.912Z,100649.25
2022-09-10T21:09:07.386Z,100658.09
2022-09-10T21:11:37.479Z,100655.06
2022-09-10T21:14:07.477Z,100650.06
2022-09-10T21:16:37.658Z,100672.44
2022-09-10T21:19:08.444Z,100679.72
2022-09-10T21:21:38.897Z,100678.84
2022-09-10T21:24:09.099Z,100682.09
2022-09-10T21:26:40.786Z,100685.50
2022-09-10T21:29:12.185Z,100676.28
2022-09-10T21:31:41.014Z,100684.31
2022-09-10T21:34:09.779Z,100690.28
2022-09-10T21:36:41.030Z,100686.25
2022-09-10T21:39:13.896Z,100691.84
2022-09-10T21:41:45.023Z,100690.38
2022-09-10T21:44:15.057Z,100696.66
2022-09-10T21:46:44.012Z,100696.84
2022-09-10T21:49:12.934Z,100691.56
2022-09-10T21:51:42.122Z,100694.03
2022-09-10T21:54:14.622Z,100696.53
2022-09-10T21:56:44.067Z,100696.31
2022-09-10T21:59:13.041Z,100708.94
2022-09-10T22:01:43.540Z,100702.59
2022-09-10T22:04:13.181Z,100706.00
2022-09-10T22:06:41.475Z,100717.94
2022-09-10T22:09:11.683Z,100715.56
2022-09-10T22:11:42.088Z,100719.50
2022-09-10T22:14:15.775Z,100710.66
2022-09-10T22:16:45.468Z,100710.88
2022-09-10T22:19:15.854Z,100707.22
2022-09-10T22:21:44.110Z,100701.56
2022-09-10T22:24:14.676Z,100703.16
2022-09-10T22:26:44.915Z,100703.00
2022-09-10T22:29:17.071Z,100705.34
2022-09-10T22:31:45.555Z,100700.53
2022-09-10T22:34:15.931Z,100696.09
2022-09-10T22:36:45.635Z,100699.50
2022-09-10T22:39:15.687Z,100698.56
2022-09-10T22:41:45.135Z,100704.09
2022-09-10T22:44:14.655Z,100700.91
2022-09-10T22:46:43.187Z,100693.25
2022-09-10T22:49:11.710Z,100702.59
2022-09-10T22:51:41.808Z,100702.38
2022-09-10T22:54:11.166Z,100702.38
2022-09-10T22:56:39.921Z,100698.81
2022-09-10T22:59:12.619Z,100699.03
2022-09-10T23:01:43.512Z,100704.63
2022-09-10T23:04:12.432Z,100712.88
2022-09-10T23:06:40.756Z,100711.81
2022-09-10T23:09:12.290Z,100708.41
2022-09-10T23:11:41.408Z,100718.03
2022-09-10T23:14:13.002Z,100727.03
2022-09-10T23:16:44.286Z,100724.47
2022-09-10T23:19:14.522Z,100730.19
2022-09-10T23:21:45.579Z,100732.06
2022-09-10T23:24:17.182Z,100727.56
2022-09-10T23:26:46.100Z,100721.09
2022-09-10T23:29:17.063Z,100728.25
2022-09-10T23:31:47.957Z,100728.28
2022-09-10T23:34:18.426Z,100736.09
2022-09-10T23:36:49.443Z,100731.28
2022-09-10T23:39:20.030Z,100731.66
2022-09-10T23:41:49.033Z,100734.91
2022-09-10T23:44:17.414Z,100726.78
2022-09-10T23:46:47.015Z,100744.41
2022-09-10T23:49:15.955Z,100737.47
2022-09-10T23:51:44.352Z,100743.72
2022-09-10T23:54:13.027Z,100745.44
2022-09-10T23:56:41.507Z,100749.13
2022-09-10T23:59:09.996Z,100754.13
